createdAt,value
2022-09-12T00:01:23.655Z,58.02
2022-09-12T00:03:59.367Z,59.07
2022-09-12T00:06:32.806Z,58.97
2022-09-12T00:09:05.891Z,58.33
2022-09-12T00:11:48.599Z,58.08
2022-09-12T00:14:18.722Z,57.90
2022-09-12T00:16:46.416Z,57.95
2022-09-12T00:19:14.130Z,58.19
2022-09-12T00:21:42.010Z,59.32
2022-09-12T00:24:10.799Z,59.11
2022-09-12T00:26:40.936Z,58.58
2022-09-12T00:29:07.986Z,58.08
2022-09-12T00:31:35.591Z,57.84
2022-09-12T00:34:02.899Z,57.49
2022-09-12T00:36:30.671Z,57.87
2022-09-12T00:38:58.673Z,58.68
2022-09-12T00:41:28.560Z,58.46
2022-09-12T00:44:17.491Z,57.58
2022-09-12T00:46:46.068Z,57.21
2022-09-12T00:49:27.355Z,57.15
2022-09-12T00:52:07.716Z,57.03
2022-09-12T00:54:42.443Z,57.05
2022-09-12T00:57:12.768Z,57.95
2022-09-12T00:59:54.095Z,57.92
2022-09-12T01:02:22.019Z,57.24
2022-09-12T01:04:49.703Z,56.98
2022-09-12T01:07:17.240Z,56.79
2022-09-12T01:09:46.027Z,56.79
2022-09-12T01:12:15.367Z,57.07
2022-09-12T01:14:43.192Z,57.54
2022-09-12T01:17:15.298Z,58.41
2022-09-12T01:19:54.884Z,57.84
2022-09-12T01:22:37.512Z,57.18
2022-09-12T01:25:22.881Z,56.58
2022-09-12T01:28:27.829Z,56.42
2022-09-12T01:31:24.571Z,56.47
2022-09-12T01:34:08.483Z,56.96
2022-09-12T01:36:46.311Z,57.67
2022-09-12T01:39:40.338Z,57.28
2022-09-12T01:42:33.452Z,56.58
2022-09-12T01:45:24.012Z,56.19
2022-09-12T01:48:00.948Z,56.26
2022-09-12T01:50:32.673Z,56.22
2022-09-12T01:53:07.119Z,56.44
2022-09-12T01:55:38.562Z,56.93
2022-09-12T01:58:12.756Z,57.35
2022-09-12T02:00:50.546Z,58.29
2022-09-12T02:03:24.351Z,57.78
2022-09-12T02:05:56.458Z,57.24
2022-09-12T02:08:33.433Z,56.99
2022-09-12T02:11:07.797Z,56.67
2022-09-12T02:13:50.542Z,56.57
2022-09-12T02:16:37.409Z,56.58
2022-09-12T02:19:17.936Z,57.16
2022-09-12T02:21:52.282Z,57.93
2022-09-12T02:24:21.432Z,57.31
2022-09-12T02:26:53.060Z,56.72
2022-09-12T02:29:20.178Z,56.23
2022-09-12T02:31:54.486Z,56.09
2022-09-12T02:34:40.054Z,56.23
2022-09-12T02:37:33.826Z,56.44
2022-09-12T02:40:01.967Z,57.14
2022-09-12T02:42:29.252Z,58.18
2022-09-12T02:44:57.449Z,58.03
2022-09-12T02:47:31.725Z,56.98
2022-09-12T02:50:00.435Z,56.57
2022-09-12T02:52:29.122Z,56.35
2022-09-12T02:54:58.624Z,56.24
2022-09-12T02:57:25.975Z,56.16
2022-09-12T02:59:58.451Z,56.64
2022-09-12T03:02:35.021Z,57.95
2022-09-12T03:05:16.200Z,57.65
2022-09-12T03:08:09.158Z,57.16
2022-09-12T03:10:48.817Z,56.79
2022-09-12T03:13:33.523Z,56.60
2022-09-12T03:16:21.014Z,56.57
2022-09-12T03:19:28.482Z,56.90
2022-09-12T03:22:03.925Z,57.73
2022-09-12T03:24:54.634Z,56.60
2022-09-12T03:27:37.343Z,54.47
2022-09-12T03:30:06.443Z,54.20
2022-09-12T03:32:41.504Z,54.78
2022-09-12T03:35:08.812Z,54.89
2022-09-12T03:37:35.881Z,54.82
2022-09-12T03:40:05.398Z,54.99
2022-09-12T03:42:32.410Z,55.28
2022-09-12T03:44:59.578Z,55.57
2022-09-12T03:47:26.579Z,56.46
2022-09-12T03:49:53.774Z,55.46
2022-09-12T03:52:21.231Z,54.85
2022-09-12T03:54:49.509Z,54.37
2022-09-12T03:57:17.077Z,54.27
2022-09-12T03:59:44.422Z,53.87
2022-09-12T04:02:13.784Z,53.89
2022-09-12T04:04:44.869Z,54.01
2022-09-12T04:07:11.917Z,54.22
2022-09-12T04:09:39.364Z,54.54
2022-09-12T04:12:06.950Z,55.62
2022-09-12T04:14:34.329Z,55.47
2022-09-12T04:17:01.691Z,55.03
2022-09-12T04:19:28.964Z,54.33
2022-09-12T04:21:56.044Z,54.25
2022-09-12T04:24:23.134Z,54.36
2022-09-12T04:26:50.266Z,54.17
2022-09-12T04:29:17.388Z,54.37
2022-09-12T04:31:44.421Z,54.70
2022-09-12T04:34:11.588Z,55.93
2022-09-12T04:36:38.942Z,55.77
2022-09-12T04:39:07.886Z,55.13
2022-09-12T04:41:38.562Z,54.55
2022-09-12T04:44:13.069Z,54.45
2022-09-12T04:46:43.718Z,54.50
2022-09-12T04:49:11.915Z,54.58
2022-09-12T04:51:41.147Z,54.70
2022-09-12T04:54:15.273Z,55.25
2022-09-12T04:56:45.130Z,56.21
2022-09-12T04:59:14.450Z,55.84
2022-09-12T05:01:42.081Z,55.22
2022-09-12T05:04:13.600Z,54.88
2022-09-12T05:06:42.358Z,54.71
2022-09-12T05:09:12.445Z,54.78
2022-09-12T05:12:03.176Z,54.84
2022-09-12T05:14:29.165Z,54.75
2022-09-12T05:17:00.254Z,55.18
2022-09-12T05:19:28.380Z,56.28
2022-09-12T05:21:56.658Z,56.17
2022-09-12T05:24:24.843Z,55.36
2022-09-12T05:26:52.081Z,54.64
2022-09-12T05:29:20.127Z,54.58
2022-09-12T05:31:52.431Z,54.50
2022-09-12T05:34:20.913Z,54.45
2022-09-12T05:36:48.774Z,54.14
2022-09-12T05:39:15.842Z,54.39
2022-09-12T05:41:42.868Z,55.16
2022-09-12T05:44:14.381Z,54.73
2022-09-12T05:46:43.995Z,53.82
2022-09-12T05:49:13.657Z,52.92
2022-09-12T05:51:43.884Z,52.40
2022-09-12T05:54:13.397Z,52.35
2022-09-12T05:56:42.782Z,51.86
2022-09-12T05:59:18.766Z,51.40
2022-09-12T06:01:46.897Z,51.40
2022-09-12T06:04:14.323Z,51.43
2022-09-12T06:06:45.343Z,51.93
2022-09-12T06:09:14.860Z,52.34
2022-09-12T06:11:43.073Z,51.74
2022-09-12T06:14:12.372Z,49.74
2022-09-12T06:16:40.038Z,48.94
2022-09-12T06:19:13.125Z,48.53
2022-09-12T06:21:40.479Z,47.34
2022-09-12T06:24:07.933Z,47.25
2022-09-12T06:26:35.893Z,46.99
2022-09-12T06:29:05.095Z,46.80
2022-09-12T06:31:34.832Z,47.07
2022-09-12T06:34:06.885Z,46.78
2022-09-12T06:36:38.431Z,47.26
2022-09-12T06:39:12.737Z,47.08
2022-09-12T06:41:43.814Z,47.33
2022-09-12T06:44:17.991Z,47.47
2022-09-12T06:46:46.211Z,47.52
2022-09-12T06:49:13.758Z,47.79
2022-09-12T06:51:42.313Z,48.00
2022-09-12T06:54:12.241Z,48.06
2022-09-12T06:56:39.226Z,48.54
2022-09-12T06:59:06.842Z,48.92
2022-09-12T07:01:34.028Z,49.09
2022-09-12T07:04:03.954Z,49.14
2022-09-12T07:06:40.749Z,49.41
2022-09-12T07:09:11.446Z,50.34
2022-09-12T07:11:40.098Z,49.65
2022-09-12T07:14:09.990Z,48.68
2022-09-12T07:16:37.927Z,48.34
2022-09-12T07:19:06.808Z,47.41
2022-09-12T07:21:36.642Z,47.21
2022-09-12T07:24:03.716Z,46.89
2022-09-12T07:26:30.988Z,46.55
2022-09-12T07:29:13.218Z,46.34
2022-09-12T07:31:46.486Z,46.16
2022-09-12T07:34:14.062Z,45.81
2022-09-12T07:36:41.113Z,46.06
2022-09-12T07:39:08.168Z,46.11
2022-09-12T07:41:35.419Z,45.77
2022-09-12T07:44:03.610Z,45.44
2022-09-12T07:46:31.733Z,44.69
2022-09-12T07:49:00.733Z,44.21
2022-09-12T07:51:29.752Z,43.57
2022-09-12T07:53:57.317Z,43.06
2022-09-12T07:56:29.430Z,42.89
2022-09-12T07:58:57.421Z,42.53
2022-09-12T08:01:25.060Z,41.89
2022-09-12T08:03:58.181Z,42.41
2022-09-12T08:06:27.045Z,42.32
2022-09-12T08:08:59.343Z,42.52
2022-09-12T08:11:28.609Z,42.03
2022-09-12T08:13:57.850Z,42.00
2022-09-12T08:16:28.117Z,41.88
2022-09-12T08:18:55.504Z,41.66
2022-09-12T08:21:28.245Z,41.12
2022-09-12T08:23:58.105Z,40.78
2022-09-12T08:26:25.239Z,40.25
2022-09-12T08:28:53.635Z,40.27
2022-09-12T08:31:23.240Z,39.83
2022-09-12T08:33:51.005Z,40.35
2022-09-12T08:36:24.414Z,40.60
2022-09-12T08:38:59.959Z,40.69
2022-09-12T08:41:36.518Z,40.60
2022-09-12T08:44:15.850Z,40.81
2022-09-12T08:47:04.236Z,40.79
2022-09-12T08:49:38.132Z,41.03
2022-09-12T08:52:37.582Z,41.53
2022-09-12T08:55:07.190Z,42.03
2022-09-12T08:57:34.477Z,42.49
2022-09-12T09:00:04.468Z,42.92
2022-09-12T09:03:17.313Z,43.16
2022-09-12T09:06:02.178Z,43.06
2022-09-12T09:08:48.170Z,42.86
2022-09-12T09:11:42.486Z,42.99
2022-09-12T09:14:47.967Z,42.87
2022-09-12T09:17:20.995Z,43.12
2022-09-12T09:19:56.649Z,42.86
2022-09-12T09:22:36.725Z,42.46
2022-09-12T09:25:19.687Z,42.05
2022-09-12T09:28:03.984Z,41.67
2022-09-12T09:30:31.532Z,40.68
2022-09-12T09:33:01.716Z,40.91
2022-09-12T09:35:45.693Z,41.11
2022-09-12T09:38:42.141Z,41.26
2022-09-12T09:41:42.261Z,41.57
2022-09-12T09:44:10.309Z,41.86
2022-09-12T09:46:37.546Z,42.33
2022-09-12T09:49:07.210Z,42.41
2022-09-12T09:51:37.336Z,42.35
2022-09-12T09:54:20.059Z,42.24
2022-09-12T09:56:48.046Z,42.04
2022-09-12T09:59:25.889Z,42.06
2022-09-12T10:02:23.803Z,41.78
2022-09-12T10:04:57.745Z,41.79
2022-09-12T10:07:27.177Z,42.38
2022-09-12T10:10:23.813Z,42.70
2022-09-12T10:12:51.986Z,42.86
2022-09-12T10:15:22.722Z,43.09
2022-09-12T10:17:51.611Z,43.49
2022-09-12T10:20:37.500Z,44.14
2022-09-12T10:23:18.327Z,44.62
2022-09-12T10:25:48.696Z,45.18
2022-09-12T10:28:39.569Z,45.66
2022-09-12T10:31:10.441Z,46.00
2022-09-12T10:33:45.496Z,46.17
2022-09-12T10:36:13.669Z,46.74
2022-09-12T10:38:53.120Z,46.86
2022-09-12T10:41:22.048Z,46.95
2022-09-12T10:43:49.552Z,47.38
2022-09-12T10:46:16.692Z,47.75
2022-09-12T10:48:48.515Z,47.63
2022-09-12T10:51:35.766Z,47.81
2022-09-12T10:54:06.705Z,48.03
2022-09-12T10:56:38.872Z,48.19
2022-09-12T10:59:24.527Z,48.28
2022-09-12T11:02:01.483Z,48.27
2022-09-12T11:04:43.957Z,48.36
2022-09-12T11:07:32.395Z,48.61
2022-09-12T11:10:38.127Z,48.76
2022-09-12T11:13:29.798Z,49.42
2022-09-12T11:16:36.323Z,49.56
2022-09-12T11:19:28.105Z,50.49
2022-09-12T11:22:10.889Z,51.26
2022-09-12T11:24:40.912Z,50.69
2022-09-12T11:27:38.061Z,49.79
2022-09-12T11:30:09.613Z,49.07
2022-09-12T11:32:39.939Z,48.79
2022-09-12T11:35:12.867Z,48.86
2022-09-12T11:38:15.118Z,48.87
2022-09-12T11:40:56.650Z,49.13
2022-09-12T11:43:40.734Z,49.32
2022-09-12T11:46:14.506Z,49.43
2022-09-12T11:48:50.696Z,49.44
2022-09-12T11:51:37.620Z,49.67
2022-09-12T11:54:49.056Z,49.85
2022-09-12T11:57:25.684Z,50.19
2022-09-12T11:59:58.416Z,50.73
2022-09-12T12:02:31.115Z,51.60
2022-09-12T12:05:35.468Z,51.13
2022-09-12T12:08:05.699Z,50.02
2022-09-12T12:10:43.684Z,49.63
2022-09-12T12:13:43.312Z,49.45
2022-09-12T12:16:25.619Z,49.26
2022-09-12T12:19:10.601Z,49.68
2022-09-12T12:21:40.479Z,50.28
2022-09-12T12:24:07.499Z,50.95
2022-09-12T12:26:42.958Z,51.06
2022-09-12T12:29:32.994Z,50.79
2022-09-12T12:32:00.111Z,50.79
2022-09-12T12:34:30.614Z,51.21
2022-09-12T12:37:00.723Z,52.74
2022-09-12T12:39:32.245Z,52.11
2022-09-12T12:42:00.796Z,51.34
2022-09-12T12:44:47.374Z,51.22
2022-09-12T12:47:24.311Z,51.10
2022-09-12T12:50:08.257Z,50.96
2022-09-12T12:52:54.884Z,51.28
2022-09-12T12:55:26.551Z,51.38
2022-09-12T12:57:58.306Z,51.38
2022-09-12T13:00:25.338Z,51.31
2022-09-12T13:03:04.609Z,51.24
2022-09-12T13:05:46.707Z,50.49
2022-09-12T13:08:16.784Z,50.37
2022-09-12T13:10:58.098Z,50.98
2022-09-12T13:13:38.277Z,52.27
2022-09-12T13:16:05.487Z,51.11
2022-09-12T13:18:41.964Z,50.53
2022-09-12T13:21:16.516Z,50.44
2022-09-12T13:23:44.046Z,50.50
2022-09-12T13:26:22.738Z,50.26
2022-09-12T13:28:51.742Z,50.12
2022-09-12T13:31:30.728Z,49.80
2022-09-12T13:34:04.863Z,49.53
2022-09-12T13:37:03.300Z,49.65
2022-09-12T13:39:55.627Z,49.34
2022-09-12T13:42:37.919Z,49.34
2022-09-12T13:45:24.017Z,49.31
2022-09-12T13:47:58.833Z,49.18
2022-09-12T13:50:32.018Z,49.63
2022-09-12T13:53:03.935Z,49.69
2022-09-12T13:55:43.377Z,49.63
2022-09-12T13:58:24.447Z,49.65
2022-09-12T14:01:06.753Z,49.61
2022-09-12T14:03:59.212Z,49.57
2022-09-12T14:06:27.856Z,49.58
2022-09-12T14:08:57.079Z,49.09
2022-09-12T14:11:29.861Z,49.48
2022-09-12T14:13:58.055Z,49.61
2022-09-12T14:16:29.210Z,49.99
2022-09-12T14:18:57.663Z,50.63
2022-09-12T14:21:26.162Z,52.07
2022-09-12T14:23:55.112Z,51.92
2022-09-12T14:26:23.819Z,51.13
2022-09-12T14:28:51.121Z,50.55
2022-09-12T14:31:29.998Z,50.70
2022-09-12T14:34:13.228Z,50.74
2022-09-12T14:36:59.178Z,50.96
2022-09-12T14:39:33.126Z,51.09
2022-09-12T14:42:16.562Z,51.51
2022-09-12T14:44:55.348Z,51.55
2022-09-12T14:47:25.919Z,52.03
2022-09-12T14:49:53.365Z,52.43
2022-09-12T14:52:40.381Z,53.43
2022-09-12T14:55:16.852Z,52.92
2022-09-12T14:57:45.403Z,52.39
2022-09-12T15:00:12.528Z,51.99
2022-09-12T15:02:45.946Z,51.76
2022-09-12T15:05:12.877Z,51.69
2022-09-12T15:07:41.612Z,51.91
2022-09-12T15:10:27.785Z,52.07
2022-09-12T15:13:14.326Z,52.09
2022-09-12T15:16:02.998Z,52.42
2022-09-12T15:18:30.318Z,53.15
2022-09-12T15:21:02.413Z,53.94
2022-09-12T15:23:47.881Z,53.51
2022-09-12T15:26:30.687Z,52.90
2022-09-12T15:28:58.193Z,52.54
2022-09-12T15:31:32.654Z,52.52
2022-09-12T15:34:01.879Z,52.62
2022-09-12T15:36:29.725Z,52.67
2022-09-12T15:38:57.182Z,52.89
2022-09-12T15:41:27.146Z,52.79
2022-09-12T15:43:54.190Z,53.07
2022-09-12T15:46:21.702Z,53.44
2022-09-12T15:48:49.190Z,54.82
2022-09-12T15:51:19.346Z,54.62
2022-09-12T15:53:49.331Z,53.80
2022-09-12T15:56:18.354Z,53.35
2022-09-12T15:58:58.429Z,53.19
2022-09-12T16:01:27.224Z,53.24
2022-09-12T16:03:54.591Z,52.99
2022-09-12T16:06:22.557Z,53.21
2022-09-12T16:08:49.809Z,53.43
2022-09-12T16:11:21.670Z,53.79
2022-09-12T16:13:49.230Z,54.89
2022-09-12T16:16:16.531Z,54.68
2022-09-12T16:18:43.718Z,54.08
2022-09-12T16:21:14.912Z,53.49
2022-09-12T16:23:43.195Z,53.26
2022-09-12T16:26:10.251Z,53.41
2022-09-12T16:28:37.444Z,53.41
2022-09-12T16:31:06.795Z,53.28
2022-09-12T16:33:35.201Z,53.14
2022-09-12T16:36:04.312Z,54.20
2022-09-12T16:38:32.626Z,55.44
2022-09-12T16:41:04.519Z,55.16
2022-09-12T16:43:32.814Z,54.60
2022-09-12T16:46:09.849Z,54.49
2022-09-12T16:48:38.050Z,54.05
2022-09-12T16:51:07.058Z,54.08
2022-09-12T16:53:36.112Z,54.17
2022-09-12T16:56:04.162Z,54.45
2022-09-12T16:58:41.072Z,55.00
2022-09-12T17:01:11.505Z,55.96
2022-09-12T17:03:39.332Z,55.68
2022-09-12T17:06:18.452Z,54.97
2022-09-12T17:08:48.848Z,54.53
2022-09-12T17:11:22.193Z,54.37
2022-09-12T17:14:09.985Z,54.13
2022-09-12T17:16:40.286Z,54.37
2022-09-12T17:19:08.505Z,54.52
2022-09-12T17:21:35.978Z,55.43
2022-09-12T17:24:04.658Z,56.32
2022-09-12T17:26:33.345Z,56.14
2022-09-12T17:29:01.005Z,55.49
2022-09-12T17:31:28.236Z,55.26
2022-09-12T17:33:59.481Z,54.80
2022-09-12T17:36:27.884Z,54.80
2022-09-12T17:38:55.724Z,54.70
2022-09-12T17:41:25.297Z,55.25
2022-09-12T17:43:57.841Z,56.60
2022-09-12T17:46:30.234Z,56.67
2022-09-12T17:48:58.787Z,56.56
2022-09-12T17:51:29.099Z,56.56
2022-09-12T17:53:59.196Z,56.60
2022-09-12T17:56:28.182Z,56.54
2022-09-12T17:58:56.691Z,56.83
2022-09-12T18:01:43.712Z,56.97
2022-09-12T18:04:11.483Z,58.39
2022-09-12T18:06:40.068Z,57.93
2022-09-12T18:09:09.744Z,56.86
2022-09-12T18:11:37.442Z,56.31
2022-09-12T18:14:04.740Z,56.18
2022-09-12T18:16:31.830Z,56.08
2022-09-12T18:19:01.541Z,56.03
2022-09-12T18:21:29.832Z,56.07
2022-09-12T18:23:59.509Z,56.63
2022-09-12T18:26:28.455Z,57.10
2022-09-12T18:28:56.228Z,56.87
2022-09-12T18:31:26.410Z,56.20
2022-09-12T18:33:53.665Z,55.48
2022-09-12T18:36:21.736Z,55.44
2022-09-12T18:38:49.529Z,55.38
2022-09-12T18:41:19.411Z,55.11
2022-09-12T18:43:48.501Z,55.63
2022-09-12T18:46:19.835Z,55.78
2022-09-12T18:48:47.295Z,56.82
2022-09-12T18:51:17.987Z,56.57
2022-09-12T18:53:52.141Z,55.94
2022-09-12T18:56:20.133Z,55.45
2022-09-12T18:58:51.851Z,55.38
2022-09-12T19:01:25.111Z,55.43
2022-09-12T19:03:53.534Z,55.66
2022-09-12T19:06:26.706Z,55.87
2022-09-12T19:08:55.498Z,56.36
2022-09-12T19:11:23.512Z,57.36
2022-09-12T19:13:52.504Z,56.95
2022-09-12T19:16:25.493Z,56.05
2022-09-12T19:18:54.666Z,55.49
2022-09-12T19:21:24.986Z,55.34
2022-09-12T19:23:54.213Z,55.52
2022-09-12T19:26:21.565Z,55.49
2022-09-12T19:28:49.500Z,55.44
2022-09-12T19:31:22.020Z,55.79
2022-09-12T19:33:49.988Z,56.89
2022-09-12T19:36:41.282Z,56.64
2022-09-12T19:39:08.757Z,55.89
2022-09-12T19:41:36.316Z,55.48
2022-09-12T19:44:04.465Z,55.67
2022-09-12T19:46:31.643Z,55.90
2022-09-12T19:48:58.681Z,55.97
2022-09-12T19:51:25.965Z,56.62
2022-09-12T19:53:53.701Z,57.74
2022-09-12T19:56:21.876Z,57.59
2022-09-12T19:58:55.801Z,57.08
2022-09-12T20:01:28.315Z,56.67
2022-09-12T20:03:59.094Z,56.41
2022-09-12T20:06:26.756Z,56.47
2022-09-12T20:08:54.416Z,56.80
2022-09-12T20:11:23.698Z,57.20
2022-09-12T20:13:51.802Z,58.44
2022-09-12T20:16:25.823Z,58.25
2022-09-12T20:18:58.275Z,57.67
2022-09-12T20:21:31.866Z,57.24
2022-09-12T20:24:12.650Z,56.90
2022-09-12T20:26:40.718Z,56.78
2022-09-12T20:29:08.902Z,56.84
2022-09-12T20:31:37.787Z,57.37
2022-09-12T20:34:05.784Z,58.37
2022-09-12T20:36:32.839Z,58.10
2022-09-12T20:39:02.622Z,57.37
2022-09-12T20:41:32.739Z,57.02
2022-09-12T20:44:00.024Z,56.99
2022-09-12T20:46:29.008Z,56.91
2022-09-12T20:48:56.634Z,57.13
2022-09-12T20:51:27.471Z,57.42
2022-09-12T20:53:58.102Z,58.40
2022-09-12T20:56:26.864Z,58.04
2022-09-12T20:58:55.340Z,57.49
2022-09-12T21:01:23.385Z,56.96
2022-09-12T21:06:22.423Z,58.14
2022-09-12T21:08:50.570Z,56.98
2022-09-12T21:11:18.788Z,57.42
2022-09-12T21:13:47.061Z,58.50
2022-09-12T21:16:16.646Z,58.30
2022-09-12T21:18:44.554Z,57.63
2022-09-12T21:21:15.166Z,57.19
2022-09-12T21:23:42.810Z,56.88
2022-09-12T21:26:10.153Z,56.71
2022-09-12T21:28:37.266Z,56.50
2022-09-12T21:31:04.921Z,56.91
2022-09-12T21:33:32.097Z,57.96
2022-09-12T21:36:03.799Z,57.78
2022-09-12T21:38:31.389Z,57.04
2022-09-12T21:41:11.904Z,56.73
2022-09-12T21:43:39.511Z,56.47
2022-09-12T21:46:07.557Z,56.28
2022-09-12T21:48:35.275Z,56.49
2022-09-12T21:51:03.743Z,57.30
2022-09-12T21:53:31.333Z,58.13
2022-09-12T21:56:07.334Z,57.78
2022-09-12T21:58:35.064Z,57.19
2022-09-12T22:01:02.220Z,56.82
2022-09-12T22:03:29.747Z,56.48
2022-09-12T22:06:01.813Z,56.41
2022-09-12T22:08:30.768Z,56.38
2022-09-12T22:11:03.096Z,56.91
2022-09-12T22:13:32.421Z,57.85
2022-09-12T22:16:01.239Z,57.51
2022-09-12T22:18:29.406Z,57.27
2022-09-12T22:21:08.914Z,56.86
2022-09-12T22:23:54.756Z,56.85
2022-09-12T22:26:22.135Z,57.05
2022-09-12T22:28:50.474Z,56.82
2022-09-12T22:31:17.866Z,57.41
2022-09-12T22:33:45.687Z,58.41
2022-09-12T22:36:13.858Z,58.23
2022-09-12T22:38:41.119Z,57.42
2022-09-12T22:41:10.881Z,56.94
2022-09-12T22:43:37.966Z,56.71
2022-09-12T22:46:09.938Z,56.71
2022-09-12T22:48:38.308Z,56.81
2022-09-12T22:51:07.197Z,57.44
2022-09-12T22:53:35.267Z,58.26
2022-09-12T22:56:05.217Z,58.03
2022-09-12T22:58:35.704Z,57.60
2022-09-12T23:01:04.557Z,57.02
2022-09-12T23:03:32.217Z,56.77
2022-09-12T23:06:00.333Z,56.63
2022-09-12T23:08:29.819Z,56.76
2022-09-12T23:11:09.649Z,57.78
2022-09-12T23:13:37.962Z,57.47
2022-09-12T23:16:07.493Z,56.93
2022-09-12T23:18:36.362Z,56.74
2022-09-12T23:21:06.137Z,56.47
2022-09-12T23:23:34.037Z,56.33
2022-09-12T23:26:15.864Z,57.39
2022-09-12T23:28:57.418Z,58.52
2022-09-12T23:31:30.109Z,57.91
2022-09-12T23:33:59.298Z,57.62
2022-09-12T23:36:27.473Z,57.36
2022-09-12T23:38:55.238Z,56.95
2022-09-12T23:41:23.409Z,56.87
2022-09-12T23:43:51.893Z,57.45
2022-09-12T23:46:20.302Z,58.17
2022-09-12T23:48:47.915Z,57.75
2022-09-12T23:51:15.182Z,57.14
2022-09-12T23:53:43.765Z,56.76
2022-09-12T23:56:11.324Z,56.79
2022-09-12T23:58:38.438Z,56.95
